sensor_id;sensor_type;location;lat;lon;timestamp;P1;durP1;ratioP1;P2;durP2;ratioP2
51907;SDS011;39320;53.214;6.556;2022-07-03T00:02:12;5.80;;;2.63;;
51907;SDS011;39320;53.214;6.556;2022-07-03T00:04:38;4.57;;;2.85;;
51907;SDS011;39320;53.214;6.556;2022-07-03T00:07:04;7.22;;;4.03;;
51907;SDS011;39320;53.214;6.556;2022-07-03T00:09:30;5.40;;;3.33;;
51907;SDS011;39320;53.214;6.556;2022-07-03T00:11:56;5.22;;;3.42;;
51907;SDS011;39320;53.214;6.556;2022-07-03T00:14:22;5.00;;;3.08;;
51907;SDS011;39320;53.214;6.556;2022-07-03T00:16:47;5.50;;;3.00;;
51907;SDS011;39320;53.214;6.556;2022-07-03T00:19:13;5.82;;;3.13;;
51907;SDS011;39320;53.214;6.556;2022-07-03T00:21:56;4.32;;;3.10;;
51907;SDS011;39320;53.214;6.556;2022-07-03T00:24:29;3.72;;;2.83;;
51907;SDS011;39320;53.214;6.556;2022-07-03T00:27:09;6.18;;;3.28;;
51907;SDS011;39320;53.214;6.556;2022-07-03T00:29:37;4.60;;;3.08;;
51907;SDS011;39320;53.214;6.556;2022-07-03T00:32:06;7.30;;;3.20;;
51907;SDS011;39320;53.214;6.556;2022-07-03T00:34:33;6.70;;;3.53;;
51907;SDS011;39320;53.214;6.556;2022-07-03T00:36:59;5.05;;;3.15;;
51907;SDS011;39320;53.214;6.556;2022-07-03T00:39:27;3.70;;;3.10;;
51907;SDS011;39320;53.214;6.556;2022-07-03T00:42:03;5.40;;;2.80;;
51907;SDS011;39320;53.214;6.556;2022-07-03T00:44:30;4.47;;;3.38;;
51907;SDS011;39320;53.214;6.556;2022-07-03T00:47:15;5.10;;;3.75;;
51907;SDS011;39320;53.214;6.556;2022-07-03T00:49:50;4.75;;;3.28;;
51907;SDS011;39320;53.214;6.556;2022-07-03T00:52:17;3.67;;;3.00;;
51907;SDS011;39320;53.214;6.556;2022-07-03T00:54:52;4.45;;;3.92;;
51907;SDS011;39320;53.214;6.556;2022-07-03T00:57:23;5.10;;;3.25;;
51907;SDS011;39320;53.214;6.556;2022-07-03T00:59:50;6.13;;;4.13;;
51907;SDS011;39320;53.214;6.556;2022-07-03T01:02:27;4.75;;;3.85;;
51907;SDS011;39320;53.214;6.556;2022-07-03T01:05:26;7.50;;;3.83;;
51907;SDS011;39320;53.214;6.556;2022-07-03T01:19:17;7.03;;;4.20;;
51907;SDS011;39320;53.214;6.556;2022-07-03T01:30:31;6.10;;;4.20;;
51907;SDS011;39320;53.214;6.556;2022-07-03T01:32:59;6.82;;;4.78;;
51907;SDS011;39320;53.214;6.556;2022-07-03T01:38:04;4.53;;;3.80;;
51907;SDS011;39320;53.214;6.556;2022-07-03T01:40:32;5.53;;;4.00;;
51907;SDS011;39320;53.214;6.556;2022-07-03T01:42:59;4.85;;;3.90;;
51907;SDS011;39320;53.214;6.556;2022-07-03T01:45:28;4.30;;;3.65;;
51907;SDS011;39320;53.214;6.556;2022-07-03T01:48:00;5.82;;;4.18;;
51907;SDS011;39320;53.214;6.556;2022-07-03T01:50:39;7.38;;;4.35;;
51907;SDS011;39320;53.214;6.556;2022-07-03T01:53:07;5.18;;;4.15;;
51907;SDS011;39320;53.214;6.556;2022-07-03T01:55:34;5.35;;;4.60;;
51907;SDS011;39320;53.214;6.556;2022-07-03T01:58:04;6.10;;;4.38;;
51907;SDS011;39320;53.214;6.556;2022-07-03T02:00:30;5.43;;;4.18;;
51907;SDS011;39320;53.214;6.556;2022-07-03T02:03:01;5.68;;;4.18;;
51907;SDS011;39320;53.214;6.556;2022-07-03T02:05:30;5.72;;;4.43;;
51907;SDS011;39320;53.214;6.556;2022-07-03T02:13:50;6.80;;;4.10;;
51907;SDS011;39320;53.214;6.556;2022-07-03T02:16:18;5.30;;;4.03;;
51907;SDS011;39320;53.214;6.556;2022-07-03T02:18:45;4.82;;;3.90;;
51907;SDS011;39320;53.214;6.556;2022-07-03T02:21:22;5.30;;;4.30;;
51907;SDS011;39320;53.214;6.556;2022-07-03T02:24:11;7.90;;;4.63;;
51907;SDS011;39320;53.214;6.556;2022-07-03T02:26:46;5.55;;;3.95;;
51907;SDS011;39320;53.214;6.556;2022-07-03T02:29:21;4.68;;;4.28;;
51907;SDS011;39320;53.214;6.556;2022-07-03T02:32:14;4.85;;;4.07;;
51907;SDS011;39320;53.214;6.556;2022-07-03T02:34:45;6.00;;;4.32;;
51907;SDS011;39320;53.214;6.556;2022-07-03T02:37:17;7.57;;;4.93;;
51907;SDS011;39320;53.214;6.556;2022-07-03T02:39:57;5.03;;;3.95;;
51907;SDS011;39320;53.214;6.556;2022-07-03T02:42:39;5.30;;;4.13;;
51907;SDS011;39320;53.214;6.556;2022-07-03T02:45:12;4.90;;;4.15;;
51907;SDS011;39320;53.214;6.556;2022-07-03T02:50:31;5.15;;;4.65;;
51907;SDS011;39320;53.214;6.556;2022-07-03T02:53:06;5.53;;;4.15;;
51907;SDS011;39320;53.214;6.556;2022-07-03T02:55:45;5.80;;;4.60;;
51907;SDS011;39320;53.214;6.556;2022-07-03T03:00:37;7.80;;;4.22;;
51907;SDS011;39320;53.214;6.556;2022-07-03T03:03:07;6.63;;;4.03;;
51907;SDS011;39320;53.214;6.556;2022-07-03T03:05:45;5.68;;;4.80;;
51907;SDS011;39320;53.214;6.556;2022-07-03T03:10:42;7.00;;;5.18;;
51907;SDS011;39320;53.214;6.556;2022-07-03T03:13:10;5.53;;;4.45;;
51907;SDS011;39320;53.214;6.556;2022-07-03T03:15:37;6.18;;;4.95;;
51907;SDS011;39320;53.214;6.556;2022-07-03T03:18:08;4.85;;;4.13;;
51907;SDS011;39320;53.214;6.556;2022-07-03T03:20:37;7.88;;;5.18;;
51907;SDS011;39320;53.214;6.556;2022-07-03T03:23:19;5.88;;;4.32;;
51907;SDS011;39320;53.214;6.556;2022-07-03T03:25:46;6.93;;;4.43;;
51907;SDS011;39320;53.214;6.556;2022-07-03T03:28:13;5.70;;;4.25;;
51907;SDS011;39320;53.214;6.556;2022-07-03T03:30:39;6.72;;;4.60;;
51907;SDS011;39320;53.214;6.556;2022-07-03T03:33:06;5.65;;;4.80;;
51907;SDS011;39320;53.214;6.556;2022-07-03T03:35:36;8.55;;;4.82;;
51907;SDS011;39320;53.214;6.556;2022-07-03T03:38:03;5.55;;;4.93;;
51907;SDS011;39320;53.214;6.556;2022-07-03T03:40:30;5.10;;;4.60;;
51907;SDS011;39320;53.214;6.556;2022-07-03T03:42:57;4.88;;;4.30;;
51907;SDS011;39320;53.214;6.556;2022-07-03T03:45:23;5.03;;;4.45;;
51907;SDS011;39320;53.214;6.556;2022-07-03T03:47:49;8.10;;;4.90;;
51907;SDS011;39320;53.214;6.556;2022-07-03T03:50:15;6.45;;;4.78;;
51907;SDS011;39320;53.214;6.556;2022-07-03T03:52:41;7.90;;;5.03;;
51907;SDS011;39320;53.214;6.556;2022-07-03T03:55:07;6.65;;;4.90;;
51907;SDS011;39320;53.214;6.556;2022-07-03T03:57:34;7.75;;;4.82;;
51907;SDS011;39320;53.214;6.556;2022-07-03T04:00:01;6.45;;;4.97;;
51907;SDS011;39320;53.214;6.556;2022-07-03T04:02:28;6.53;;;5.35;;
51907;SDS011;39320;53.214;6.556;2022-07-03T04:04:54;5.47;;;4.55;;
51907;SDS011;39320;53.214;6.556;2022-07-03T04:07:20;6.53;;;4.40;;
51907;SDS011;39320;53.214;6.556;2022-07-03T04:09:45;5.50;;;4.68;;
51907;SDS011;39320;53.214;6.556;2022-07-03T04:12:11;6.22;;;5.10;;
51907;SDS011;39320;53.214;6.556;2022-07-03T04:14:37;9.85;;;5.22;;
51907;SDS011;39320;53.214;6.556;2022-07-03T04:17:03;6.65;;;5.20;;
51907;SDS011;39320;53.214;6.556;2022-07-03T04:19:29;7.75;;;5.00;;
51907;SDS011;39320;53.214;6.556;2022-07-03T04:21:55;6.82;;;5.22;;
51907;SDS011;39320;53.214;6.556;2022-07-03T04:24:21;6.75;;;4.57;;
51907;SDS011;39320;53.214;6.556;2022-07-03T04:26:47;5.22;;;4.72;;
51907;SDS011;39320;53.214;6.556;2022-07-03T04:29:12;6.28;;;4.63;;
51907;SDS011;39320;53.214;6.556;2022-07-03T04:31:38;6.35;;;4.70;;
51907;SDS011;39320;53.214;6.556;2022-07-03T04:34:04;6.38;;;5.20;;
51907;SDS011;39320;53.214;6.556;2022-07-03T04:36:30;5.35;;;4.65;;
51907;SDS011;39320;53.214;6.556;2022-07-03T04:38:55;7.15;;;4.78;;
51907;SDS011;39320;53.214;6.556;2022-07-03T04:41:24;4.55;;;4.15;;
51907;SDS011;39320;53.214;6.556;2022-07-03T04:43:49;5.63;;;4.45;;
51907;SDS011;39320;53.214;6.556;2022-07-03T04:46:15;6.97;;;4.80;;
51907;SDS011;39320;53.214;6.556;2022-07-03T04:48:41;7.13;;;5.00;;
51907;SDS011;39320;53.214;6.556;2022-07-03T04:51:07;5.70;;;5.07;;
51907;SDS011;39320;53.214;6.556;2022-07-03T04:53:33;6.55;;;4.72;;
51907;SDS011;39320;53.214;6.556;2022-07-03T04:55:59;6.03;;;4.70;;
51907;SDS011;39320;53.214;6.556;2022-07-03T04:58:25;6.57;;;4.68;;
51907;SDS011;39320;53.214;6.556;2022-07-03T05:00:50;6.13;;;4.60;;
51907;SDS011;39320;53.214;6.556;2022-07-03T05:03:16;5.65;;;4.00;;
51907;SDS011;39320;53.214;6.556;2022-07-03T05:05:42;8.25;;;4.90;;
51907;SDS011;39320;53.214;6.556;2022-07-03T05:08:08;6.43;;;4.72;;
51907;SDS011;39320;53.214;6.556;2022-07-03T05:10:33;4.53;;;3.85;;
51907;SDS011;39320;53.214;6.556;2022-07-03T05:12:59;4.70;;;3.70;;
51907;SDS011;39320;53.214;6.556;2022-07-03T05:15:25;4.20;;;3.67;;
51907;SDS011;39320;53.214;6.556;2022-07-03T05:17:51;5.55;;;3.45;;
51907;SDS011;39320;53.214;6.556;2022-07-03T05:20:17;4.05;;;3.25;;
51907;SDS011;39320;53.214;6.556;2022-07-03T05:25:21;3.83;;;2.50;;
51907;SDS011;39320;53.214;6.556;2022-07-03T05:27:47;3.72;;;2.40;;
51907;SDS011;39320;53.214;6.556;2022-07-03T05:30:15;2.88;;;2.20;;
51907;SDS011;39320;53.214;6.556;2022-07-03T05:32:42;4.32;;;2.70;;
51907;SDS011;39320;53.214;6.556;2022-07-03T05:35:08;4.65;;;2.90;;
51907;SDS011;39320;53.214;6.556;2022-07-03T05:37:34;2.90;;;2.38;;
51907;SDS011;39320;53.214;6.556;2022-07-03T05:40:00;3.80;;;2.50;;
51907;SDS011;39320;53.214;6.556;2022-07-03T05:42:26;4.97;;;2.38;;
51907;SDS011;39320;53.214;6.556;2022-07-03T05:44:54;4.95;;;2.78;;
51907;SDS011;39320;53.214;6.556;2022-07-03T05:47:20;4.80;;;2.35;;
51907;SDS011;39320;53.214;6.556;2022-07-03T05:49:45;3.97;;;2.20;;
51907;SDS011;39320;53.214;6.556;2022-07-03T05:52:12;3.60;;;2.15;;
51907;SDS011;39320;53.214;6.556;2022-07-03T05:54:38;5.75;;;2.80;;
51907;SDS011;39320;53.214;6.556;2022-07-03T05:57:04;3.05;;;2.63;;
51907;SDS011;39320;53.214;6.556;2022-07-03T05:59:30;4.97;;;2.55;;
51907;SDS011;39320;53.214;6.556;2022-07-03T06:01:56;5.57;;;3.00;;
51907;SDS011;39320;53.214;6.556;2022-07-03T06:04:22;3.50;;;2.75;;
51907;SDS011;39320;53.214;6.556;2022-07-03T06:06:48;3.50;;;2.88;;
51907;SDS011;39320;53.214;6.556;2022-07-03T06:09:13;4.68;;;2.67;;
51907;SDS011;39320;53.214;6.556;2022-07-03T06:11:39;4.65;;;2.72;;
51907;SDS011;39320;53.214;6.556;2022-07-03T06:14:05;3.53;;;2.80;;
51907;SDS011;39320;53.214;6.556;2022-07-03T06:16:30;4.47;;;3.00;;
51907;SDS011;39320;53.214;6.556;2022-07-03T06:18:56;5.60;;;2.65;;
51907;SDS011;39320;53.214;6.556;2022-07-03T06:21:22;6.55;;;2.22;;
51907;SDS011;39320;53.214;6.556;2022-07-03T06:23:47;3.95;;;2.00;;
51907;SDS011;39320;53.214;6.556;2022-07-03T06:26:13;4.35;;;2.17;;
51907;SDS011;39320;53.214;6.556;2022-07-03T06:28:39;2.47;;;1.55;;
51907;SDS011;39320;53.214;6.556;2022-07-03T06:31:05;1.90;;;1.70;;
51907;SDS011;39320;53.214;6.556;2022-07-03T06:33:31;3.20;;;1.60;;
51907;SDS011;39320;53.214;6.556;2022-07-03T06:35:57;4.20;;;2.10;;
51907;SDS011;39320;53.214;6.556;2022-07-03T06:38:23;3.00;;;1.70;;
51907;SDS011;39320;53.214;6.556;2022-07-03T06:40:49;4.22;;;1.77;;
51907;SDS011;39320;53.214;6.556;2022-07-03T06:43:14;2.78;;;1.88;;
51907;SDS011;39320;53.214;6.556;2022-07-03T06:45:40;4.50;;;1.73;;
51907;SDS011;39320;53.214;6.556;2022-07-03T06:48:06;4.18;;;1.58;;
51907;SDS011;39320;53.214;6.556;2022-07-03T06:50:31;2.72;;;1.67;;
51907;SDS011;39320;53.214;6.556;2022-07-03T06:52:57;2.13;;;1.52;;
51907;SDS011;39320;53.214;6.556;2022-07-03T06:55:23;5.75;;;1.90;;
51907;SDS011;39320;53.214;6.556;2022-07-03T06:57:48;3.72;;;1.77;;
51907;SDS011;39320;53.214;6.556;2022-07-03T07:00:14;2.28;;;1.38;;
51907;SDS011;39320;53.214;6.556;2022-07-03T07:02:40;2.85;;;1.58;;
51907;SDS011;39320;53.214;6.556;2022-07-03T07:05:06;2.53;;;1.42;;
51907;SDS011;39320;53.214;6.556;2022-07-03T07:07:32;2.30;;;1.42;;
51907;SDS011;39320;53.214;6.556;2022-07-03T07:09:58;3.30;;;2.00;;
51907;SDS011;39320;53.214;6.556;2022-07-03T07:12:23;3.53;;;1.70;;
51907;SDS011;39320;53.214;6.556;2022-07-03T07:14:50;3.17;;;1.60;;
51907;SDS011;39320;53.214;6.556;2022-07-03T07:17:16;3.92;;;1.70;;
51907;SDS011;39320;53.214;6.556;2022-07-03T07:19:42;3.28;;;1.52;;
51907;SDS011;39320;53.214;6.556;2022-07-03T07:22:08;4.13;;;1.70;;
51907;SDS011;39320;53.214;6.556;2022-07-03T07:24:33;4.53;;;2.20;;
51907;SDS011;39320;53.214;6.556;2022-07-03T07:26:59;4.32;;;1.90;;
51907;SDS011;39320;53.214;6.556;2022-07-03T07:29:25;3.05;;;2.20;;
51907;SDS011;39320;53.214;6.556;2022-07-03T07:31:52;5.30;;;1.92;;
51907;SDS011;39320;53.214;6.556;2022-07-03T07:34:17;2.20;;;1.42;;
51907;SDS011;39320;53.214;6.556;2022-07-03T07:36:43;3.10;;;1.85;;
51907;SDS011;39320;53.214;6.556;2022-07-03T07:39:09;3.53;;;1.65;;
51907;SDS011;39320;53.214;6.556;2022-07-03T07:41:35;5.13;;;2.17;;
51907;SDS011;39320;53.214;6.556;2022-07-03T07:44:01;4.80;;;1.63;;
51907;SDS011;39320;53.214;6.556;2022-07-03T07:46:28;2.92;;;1.50;;
51907;SDS011;39320;53.214;6.556;2022-07-03T07:48:54;2.47;;;2.10;;
51907;SDS011;39320;53.214;6.556;2022-07-03T07:51:20;3.75;;;2.08;;
51907;SDS011;39320;53.214;6.556;2022-07-03T07:53:45;3.42;;;2.33;;
51907;SDS011;39320;53.214;6.556;2022-07-03T07:56:11;4.75;;;2.30;;
51907;SDS011;39320;53.214;6.556;2022-07-03T07:58:37;2.30;;;1.77;;
51907;SDS011;39320;53.214;6.556;2022-07-03T08:01:03;4.22;;;1.95;;
51907;SDS011;39320;53.214;6.556;2022-07-03T08:03:47;3.80;;;1.45;;
51907;SDS011;39320;53.214;6.556;2022-07-03T08:06:34;3.13;;;1.13;;
51907;SDS011;39320;53.214;6.556;2022-07-03T08:09:00;1.85;;;1.30;;
51907;SDS011;39320;53.214;6.556;2022-07-03T08:11:26;1.70;;;1.00;;
51907;SDS011;39320;53.214;6.556;2022-07-03T08:13:52;1.67;;;1.15;;
51907;SDS011;39320;53.214;6.556;2022-07-03T08:16:17;3.95;;;1.40;;
51907;SDS011;39320;53.214;6.556;2022-07-03T08:18:43;3.50;;;1.80;;
51907;SDS011;39320;53.214;6.556;2022-07-03T08:21:09;3.50;;;1.17;;
51907;SDS011;39320;53.214;6.556;2022-07-03T08:23:34;3.10;;;1.40;;
51907;SDS011;39320;53.214;6.556;2022-07-03T08:26:00;2.55;;;1.40;;
51907;SDS011;39320;53.214;6.556;2022-07-03T08:28:26;2.38;;;1.10;;
51907;SDS011;39320;53.214;6.556;2022-07-03T08:30:52;2.80;;;1.40;;
51907;SDS011;39320;53.214;6.556;2022-07-03T08:33:18;4.55;;;1.30;;
51907;SDS011;39320;53.214;6.556;2022-07-03T08:35:44;2.35;;;1.20;;
51907;SDS011;39320;53.214;6.556;2022-07-03T08:38:10;3.70;;;1.20;;
51907;SDS011;39320;53.214;6.556;2022-07-03T08:40:35;3.35;;;1.20;;
51907;SDS011;39320;53.214;6.556;2022-07-03T08:43:02;2.92;;;1.25;;
51907;SDS011;39320;53.214;6.556;2022-07-03T08:45:29;2.30;;;1.05;;
51907;SDS011;39320;53.214;6.556;2022-07-03T08:47:58;2.17;;;0.80;;
51907;SDS011;39320;53.214;6.556;2022-07-03T08:50:24;1.80;;;0.90;;
51907;SDS011;39320;53.214;6.556;2022-07-03T08:52:51;1.60;;;0.77;;
51907;SDS011;39320;53.214;6.556;2022-07-03T08:55:18;1.58;;;0.70;;
51907;SDS011;39320;53.214;6.556;2022-07-03T08:57:45;2.45;;;0.90;;
51907;SDS011;39320;53.214;6.556;2022-07-03T09:00:13;3.00;;;0.77;;
51907;SDS011;39320;53.214;6.556;2022-07-03T09:02:42;2.10;;;0.73;;
51907;SDS011;39320;53.214;6.556;2022-07-03T09:05:13;1.15;;;0.70;;
51907;SDS011;39320;53.214;6.556;2022-07-03T09:07:42;2.20;;;0.60;;
51907;SDS011;39320;53.214;6.556;2022-07-03T09:10:09;3.05;;;0.85;;
51907;SDS011;39320;53.214;6.556;2022-07-03T09:12:38;2.00;;;0.90;;
51907;SDS011;39320;53.214;6.556;2022-07-03T09:15:05;3.50;;;0.90;;
51907;SDS011;39320;53.214;6.556;2022-07-03T09:17:32;1.63;;;0.88;;
51907;SDS011;39320;53.214;6.556;2022-07-03T09:19:59;3.00;;;0.70;;
51907;SDS011;39320;53.214;6.556;2022-07-03T09:22:27;1.48;;;0.70;;
51907;SDS011;39320;53.214;6.556;2022-07-03T09:24:54;1.98;;;0.73;;
51907;SDS011;39320;53.214;6.556;2022-07-03T09:27:28;1.25;;;0.40;;
51907;SDS011;39320;53.214;6.556;2022-07-03T09:30:00;4.97;;;0.63;;
51907;SDS011;39320;53.214;6.556;2022-07-03T09:32:30;0.70;;;0.47;;
51907;SDS011;39320;53.214;6.556;2022-07-03T09:37:53;1.80;;;0.60;;
51907;SDS011;39320;53.214;6.556;2022-07-03T09:40:21;1.92;;;0.68;;
51907;SDS011;39320;53.214;6.556;2022-07-03T09:45:47;1.05;;;0.57;;
51907;SDS011;39320;53.214;6.556;2022-07-03T09:48:20;0.73;;;0.35;;
51907;SDS011;39320;53.214;6.556;2022-07-03T09:50:57;2.50;;;1.00;;
51907;SDS011;39320;53.214;6.556;2022-07-03T09:53:54;1.25;;;0.57;;
51907;SDS011;39320;53.214;6.556;2022-07-03T09:59:05;1.70;;;0.80;;
51907;SDS011;39320;53.214;6.556;2022-07-03T10:01:34;1.88;;;1.08;;
51907;SDS011;39320;53.214;6.556;2022-07-03T10:04:08;1.65;;;0.50;;
51907;SDS011;39320;53.214;6.556;2022-07-03T10:09:32;2.58;;;0.80;;
51907;SDS011;39320;53.214;6.556;2022-07-03T10:12:00;1.83;;;0.75;;
51907;SDS011;39320;53.214;6.556;2022-07-03T10:14:31;1.17;;;0.68;;
51907;SDS011;39320;53.214;6.556;2022-07-03T10:16:57;1.98;;;0.88;;
51907;SDS011;39320;53.214;6.556;2022-07-03T10:19:25;1.92;;;0.80;;
51907;SDS011;39320;53.214;6.556;2022-07-03T10:24:29;2.60;;;1.20;;
51907;SDS011;39320;53.214;6.556;2022-07-03T10:26:56;1.58;;;0.90;;
51907;SDS011;39320;53.214;6.556;2022-07-03T10:29:24;2.35;;;1.17;;
51907;SDS011;39320;53.214;6.556;2022-07-03T10:31:54;3.10;;;0.90;;
51907;SDS011;39320;53.214;6.556;2022-07-03T10:34:22;1.40;;;0.80;;
51907;SDS011;39320;53.214;6.556;2022-07-03T10:36:53;2.70;;;0.77;;
51907;SDS011;39320;53.214;6.556;2022-07-03T10:39:30;1.52;;;0.70;;
51907;SDS011;39320;53.214;6.556;2022-07-03T10:42:03;1.23;;;0.75;;
51907;SDS011;39320;53.214;6.556;2022-07-03T10:44:49;3.63;;;1.00;;
51907;SDS011;39320;53.214;6.556;2022-07-03T10:47:43;3.05;;;1.63;;
51907;SDS011;39320;53.214;6.556;2022-07-03T10:50:13;1.80;;;0.80;;
51907;SDS011;39320;53.214;6.556;2022-07-03T10:52:41;2.63;;;1.00;;
51907;SDS011;39320;53.214;6.556;2022-07-03T10:55:07;1.77;;;0.65;;
51907;SDS011;39320;53.214;6.556;2022-07-03T10:57:34;2.65;;;1.00;;
51907;SDS011;39320;53.214;6.556;2022-07-03T11:00:03;1.20;;;0.70;;
51907;SDS011;39320;53.214;6.556;2022-07-03T11:07:27;1.80;;;0.80;;
51907;SDS011;39320;53.214;6.556;2022-07-03T11:12:53;4.90;;;1.20;;
51907;SDS011;39320;53.214;6.556;2022-07-03T11:15:41;1.75;;;0.77;;
51907;SDS011;39320;53.214;6.556;2022-07-03T11:18:14;2.13;;;0.80;;
51907;SDS011;39320;53.214;6.556;2022-07-03T11:25:48;4.03;;;1.08;;
51907;SDS011;39320;53.214;6.556;2022-07-03T11:33:43;4.20;;;1.10;;
51907;SDS011;39320;53.214;6.556;2022-07-03T11:36:30;2.55;;;1.20;;
51907;SDS011;39320;53.214;6.556;2022-07-03T11:41:23;4.57;;;1.20;;
51907;SDS011;39320;53.214;6.556;2022-07-03T11:44:06;3.15;;;1.38;;
51907;SDS011;39320;53.214;6.556;2022-07-03T11:46:37;3.22;;;1.15;;
51907;SDS011;39320;53.214;6.556;2022-07-03T11:49:11;2.90;;;1.20;;
51907;SDS011;39320;53.214;6.556;2022-07-03T11:51:39;2.42;;;1.77;;
51907;SDS011;39320;53.214;6.556;2022-07-03T11:54:18;4.03;;;2.00;;
51907;SDS011;39320;53.214;6.556;2022-07-03T11:56:46;5.72;;;1.75;;
51907;SDS011;39320;53.214;6.556;2022-07-03T11:59:12;3.92;;;1.58;;
51907;SDS011;39320;53.214;6.556;2022-07-03T12:01:39;5.30;;;1.80;;
51907;SDS011;39320;53.214;6.556;2022-07-03T12:06:42;4.57;;;1.40;;
51907;SDS011;39320;53.214;6.556;2022-07-03T12:11:41;5.07;;;1.25;;
51907;SDS011;39320;53.214;6.556;2022-07-03T12:14:17;2.88;;;1.27;;
51907;SDS011;39320;53.214;6.556;2022-07-03T12:17:15;3.88;;;1.33;;
51907;SDS011;39320;53.214;6.556;2022-07-03T12:22:31;3.20;;;1.45;;
51907;SDS011;39320;53.214;6.556;2022-07-03T12:24:59;1.83;;;1.00;;
51907;SDS011;39320;53.214;6.556;2022-07-03T12:27:26;5.30;;;1.40;;
51907;SDS011;39320;53.214;6.556;2022-07-03T12:29:52;10.73;;;2.20;;
51907;SDS011;39320;53.214;6.556;2022-07-03T12:32:19;6.85;;;1.77;;
51907;SDS011;39320;53.214;6.556;2022-07-03T12:34:45;4.93;;;1.70;;
51907;SDS011;39320;53.214;6.556;2022-07-03T12:37:11;6.15;;;1.45;;
51907;SDS011;39320;53.214;6.556;2022-07-03T12:39:46;3.20;;;1.40;;
51907;SDS011;39320;53.214;6.556;2022-07-03T12:42:14;4.07;;;1.20;;
51907;SDS011;39320;53.214;6.556;2022-07-03T12:44:40;2.95;;;1.40;;
51907;SDS011;39320;53.214;6.556;2022-07-03T12:47:05;3.55;;;1.25;;
51907;SDS011;39320;53.214;6.556;2022-07-03T12:49:32;2.15;;;1.00;;
51907;SDS011;39320;53.214;6.556;2022-07-03T12:51:58;4.53;;;1.52;;
51907;SDS011;39320;53.214;6.556;2022-07-03T12:54:35;4.55;;;1.30;;
51907;SDS011;39320;53.214;6.556;2022-07-03T12:57:09;5.72;;;1.52;;
51907;SDS011;39320;53.214;6.556;2022-07-03T13:00:07;3.33;;;1.55;;
51907;SDS011;39320;53.214;6.556;2022-07-03T13:02:34;3.72;;;1.50;;
51907;SDS011;39320;53.214;6.556;2022-07-03T13:05:01;3.25;;;1.83;;
51907;SDS011;39320;53.214;6.556;2022-07-03T13:07:39;3.63;;;1.50;;
51907;SDS011;39320;53.214;6.556;2022-07-03T13:10:06;4.72;;;1.77;;
51907;SDS011;39320;53.214;6.556;2022-07-03T13:12:32;3.28;;;1.60;;
51907;SDS011;39320;53.214;6.556;2022-07-03T13:14:59;2.83;;;1.42;;
51907;SDS011;39320;53.214;6.556;2022-07-03T13:20:16;5.95;;;1.70;;
51907;SDS011;39320;53.214;6.556;2022-07-03T13:22:42;3.83;;;1.27;;
51907;SDS011;39320;53.214;6.556;2022-07-03T13:25:08;3.00;;;1.25;;
51907;SDS011;39320;53.214;6.556;2022-07-03T13:27:37;3.45;;;1.35;;
51907;SDS011;39320;53.214;6.556;2022-07-03T13:30:03;6.35;;;1.50;;
51907;SDS011;39320;53.214;6.556;2022-07-03T13:32:29;3.70;;;1.98;;
51907;SDS011;39320;53.214;6.556;2022-07-03T13:34:54;3.20;;;1.63;;
51907;SDS011;39320;53.214;6.556;2022-07-03T13:37:20;2.92;;;1.50;;
51907;SDS011;39320;53.214;6.556;2022-07-03T13:39:46;2.67;;;1.30;;
51907;SDS011;39320;53.214;6.556;2022-07-03T13:42:12;3.92;;;1.35;;
51907;SDS011;39320;53.214;6.556;2022-07-03T13:44:37;6.50;;;1.88;;
51907;SDS011;39320;53.214;6.556;2022-07-03T13:47:04;2.67;;;1.42;;
51907;SDS011;39320;53.214;6.556;2022-07-03T13:49:33;4.63;;;1.55;;
51907;SDS011;39320;53.214;6.556;2022-07-03T13:51:59;3.05;;;1.30;;
51907;SDS011;39320;53.214;6.556;2022-07-03T13:54:24;3.95;;;1.98;;
51907;SDS011;39320;53.214;6.556;2022-07-03T13:56:50;5.95;;;1.63;;
51907;SDS011;39320;53.214;6.556;2022-07-03T13:59:16;3.60;;;1.60;;
51907;SDS011;39320;53.214;6.556;2022-07-03T14:01:43;4.25;;;1.42;;
51907;SDS011;39320;53.214;6.556;2022-07-03T14:04:09;6.35;;;2.30;;
51907;SDS011;39320;53.214;6.556;2022-07-03T14:06:35;5.63;;;2.78;;
51907;SDS011;39320;53.214;6.556;2022-07-03T14:09:01;8.52;;;2.95;;
51907;SDS011;39320;53.214;6.556;2022-07-03T14:11:27;8.60;;;3.17;;
51907;SDS011;39320;53.214;6.556;2022-07-03T14:13:54;10.25;;;4.20;;
51907;SDS011;39320;53.214;6.556;2022-07-03T14:16:20;9.45;;;4.03;;
51907;SDS011;39320;53.214;6.556;2022-07-03T14:18:46;7.25;;;3.40;;
51907;SDS011;39320;53.214;6.556;2022-07-03T14:21:12;7.28;;;2.20;;
51907;SDS011;39320;53.214;6.556;2022-07-03T14:23:38;2.15;;;1.67;;
51907;SDS011;39320;53.214;6.556;2022-07-03T14:26:04;3.30;;;1.90;;
51907;SDS011;39320;53.214;6.556;2022-07-03T14:28:29;5.10;;;2.80;;
51907;SDS011;39320;53.214;6.556;2022-07-03T14:31:14;4.10;;;2.35;;
51907;SDS011;39320;53.214;6.556;2022-07-03T14:33:48;3.47;;;2.55;;
51907;SDS011;39320;53.214;6.556;2022-07-03T14:36:14;5.57;;;2.22;;
51907;SDS011;39320;53.214;6.556;2022-07-03T14:38:41;4.03;;;2.67;;
51907;SDS011;39320;53.214;6.556;2022-07-03T14:41:07;5.25;;;2.38;;
51907;SDS011;39320;53.214;6.556;2022-07-03T14:43:33;3.03;;;2.28;;
51907;SDS011;39320;53.214;6.556;2022-07-03T14:45:58;4.88;;;2.20;;
51907;SDS011;39320;53.214;6.556;2022-07-03T14:48:24;4.00;;;2.35;;
51907;SDS011;39320;53.214;6.556;2022-07-03T14:50:50;5.10;;;2.15;;
51907;SDS011;39320;53.214;6.556;2022-07-03T14:53:17;4.28;;;2.63;;
51907;SDS011;39320;53.214;6.556;2022-07-03T14:55:43;5.30;;;2.42;;
51907;SDS011;39320;53.214;6.556;2022-07-03T15:00:46;6.75;;;3.10;;
51907;SDS011;39320;53.214;6.556;2022-07-03T15:03:17;4.53;;;3.00;;
51907;SDS011;39320;53.214;6.556;2022-07-03T15:05:43;4.07;;;2.40;;
51907;SDS011;39320;53.214;6.556;2022-07-03T15:08:24;4.07;;;2.17;;
51907;SDS011;39320;53.214;6.556;2022-07-03T15:10:53;5.97;;;2.47;;
51907;SDS011;39320;53.214;6.556;2022-07-03T15:13:19;3.72;;;2.47;;
51907;SDS011;39320;53.214;6.556;2022-07-03T15:15:46;2.78;;;2.28;;
51907;SDS011;39320;53.214;6.556;2022-07-03T15:18:15;6.78;;;3.90;;
51907;SDS011;39320;53.214;6.556;2022-07-03T15:20:43;3.80;;;2.75;;
51907;SDS011;39320;53.214;6.556;2022-07-03T15:23:09;4.45;;;2.50;;
51907;SDS011;39320;53.214;6.556;2022-07-03T15:25:37;5.22;;;2.60;;
51907;SDS011;39320;53.214;6.556;2022-07-03T15:28:04;3.53;;;2.42;;
51907;SDS011;39320;53.214;6.556;2022-07-03T15:30:59;5.47;;;2.80;;
51907;SDS011;39320;53.214;6.556;2022-07-03T15:33:25;4.18;;;2.33;;
51907;SDS011;39320;53.214;6.556;2022-07-03T15:36:02;5.10;;;2.70;;
51907;SDS011;39320;53.214;6.556;2022-07-03T15:38:37;3.00;;;1.70;;
51907;SDS011;39320;53.214;6.556;2022-07-03T15:41:09;5.70;;;2.05;;
51907;SDS011;39320;53.214;6.556;2022-07-03T15:48:17;2.60;;;1.80;;
51907;SDS011;39320;53.214;6.556;2022-07-03T15:50:53;2.78;;;1.80;;
51907;SDS011;39320;53.214;6.556;2022-07-03T15:53:22;3.75;;;1.90;;
51907;SDS011;39320;53.214;6.556;2022-07-03T15:55:56;3.28;;;1.80;;
51907;SDS011;39320;53.214;6.556;2022-07-03T15:58:28;4.82;;;1.70;;
51907;SDS011;39320;53.214;6.556;2022-07-03T16:01:02;4.93;;;1.90;;
51907;SDS011;39320;53.214;6.556;2022-07-03T16:03:52;3.75;;;2.33;;
51907;SDS011;39320;53.214;6.556;2022-07-03T16:06:41;3.95;;;2.17;;
51907;SDS011;39320;53.214;6.556;2022-07-03T16:09:09;3.30;;;2.03;;
51907;SDS011;39320;53.214;6.556;2022-07-03T16:11:35;5.47;;;2.50;;
51907;SDS011;39320;53.214;6.556;2022-07-03T16:14:03;3.13;;;2.08;;
51907;SDS011;39320;53.214;6.556;2022-07-03T16:16:30;4.47;;;1.83;;
51907;SDS011;39320;53.214;6.556;2022-07-03T16:18:57;3.22;;;2.28;;
51907;SDS011;39320;53.214;6.556;2022-07-03T16:21:27;2.97;;;2.40;;
51907;SDS011;39320;53.214;6.556;2022-07-03T16:23:54;4.05;;;2.08;;
51907;SDS011;39320;53.214;6.556;2022-07-03T16:26:20;5.15;;;2.38;;
51907;SDS011;39320;53.214;6.556;2022-07-03T16:28:48;3.30;;;2.05;;
51907;SDS011;39320;53.214;6.556;2022-07-03T16:31:15;4.30;;;2.20;;